GMMX METAR and TAF | Updated Today

GMMX METAR

Menara Airport

Observation time: 19 min. ago

GMMX 010900Z 02003KT 320V090 8000 FEW030 20/13 Q1018 NOSIG

Need help? Read our tutorial on how to read METARs or read the parsed version below.

Menara Airport (GMMX) METAR

  • Weather conditions on Sat, 01 Oct 2022 09:00:00 +0000 (19 min. ago):
  • Present conditions: Dry
  • Clouds: A few at 914 meters
  • Visibility: 8000 meters
  • Wind: 20 degrees at 3 knots
  • Temperature: 20 celsius
  • Dew point: 13 celsius
  • Pressure: 1018 millibars
  • Remarks: None


Useful to know...

GMMX TAF

Menara Airport

TAF GMMX 010500Z 0106/0212 04007KT 9999 FEW023 SCT090 TEMPO 0116/0123 34022KT 4000 TSRA BKN023 FEW030CB BKN090
Observation time: 4:19 hr. ago
Need help? Read our tutorial on how to read TAFs or read the parsed version below.

Parsed version of TAF for Menara Airport (GMMX)

  • From 01 October at 06:00 UTC, to day 02 of the month at 12:00 UTC
  • Clouds: A few at 701 meters; scattered at 2743 meters
  • Visibility: Greater than 10 km
  • Wind: 40 degrees at 7
  • Expected to arise temporarily, from 01 October at 16:00 UTC, to day 01 of the month at 23:00 UTC
  • Clouds: Broken sky at 701 meters; a few at 914 meters, cumulonimbus; broken sky at 2743 meters
  • Visibility: 4000 meters
  • Wind: 340 degrees at 22
  • Other: Thunderstorms rain

Airports near GMMX

No airports found within 100nm radius.